Time;durP1;ratioP1;P1;durP2;ratioP2;P2;SDS_P1;SDS_P2;PMS_P1;PMS_P2;Temp;Humidity;BMP_temperature;BMP_pressure;BME280_temperature;BME280_humidity;BME280_pressure;Samples;Min_cycle;Max_cycle;Signal;HPM_P1;HPM_P2
2023/11/27 00:01:55;;;;;;;7.60;4.40;;;;;;;5.56;58.36;98330.44;4974088;28;20113;-75
2023/11/27 00:04:20;;;;;;;8.10;4.75;;;;;;;5.53;58.23;98334.03;4989764;28;20023;-75
2023/11/27 00:06:46;;;;;;;7.55;4.63;;;;;;;5.49;58.55;98337.75;4973794;28;20054;-75
2023/11/27 00:09:12;;;;;;;8.23;4.68;;;;;;;5.45;58.62;98344.03;4975065;28;20030;-75
2023/11/27 00:11:38;;;;;;;7.97;4.40;;;;;;;5.42;58.29;98350.25;4975241;28;20031;-73
2023/11/27 00:14:08;;;;;;;7.50;4.20;;;;;;;5.34;58.03;98344.69;4975280;28;20085;-75
2023/11/27 00:16:33;;;;;;;6.93;3.97;;;;;;;5.36;57.92;98350.63;4973860;28;20030;-75
2023/11/27 00:18:59;;;;;;;7.15;4.32;;;;;;;5.29;58.14;98340.72;4990176;28;20050;-75
2023/11/27 00:21:24;;;;;;;6.82;4.10;;;;;;;5.30;58.36;98345.81;4989975;28;20042;-75
2023/11/27 00:23:50;;;;;;;7.75;4.47;;;;;;;5.21;58.29;98338.59;4974876;28;20034;-75
2023/11/27 00:26:16;;;;;;;6.88;4.53;;;;;;;5.23;58.51;98355.72;4974095;28;20506;-75
2023/11/27 00:28:42;;;;;;;6.88;4.03;;;;;;;5.21;58.28;98349.78;4973579;28;20073;-75
2023/11/27 00:31:09;;;;;;;6.53;4.00;;;;;;;5.16;57.99;98354.41;4989894;28;20109;-75
2023/11/27 00:33:36;;;;;;;7.30;4.10;;;;;;;5.12;57.82;98358.09;4973430;28;20069;-75
2023/11/27 00:36:02;;;;;;;6.47;3.92;;;;;;;5.08;58.02;98359.22;4989930;28;20030;-75
2023/11/27 00:38:27;;;;;;;5.60;3.92;;;;;;;5.09;57.87;98363.44;4989763;28;20502;-75
2023/11/27 00:40:53;;;;;;;7.97;4.28;;;;;;;5.08;57.94;98372.16;4989545;28;20042;-75
2023/11/27 00:43:18;;;;;;;5.57;3.80;;;;;;;5.06;57.97;98381.75;4989833;28;20034;-75
2023/11/27 00:45:44;;;;;;;6.82;3.78;;;;;;;5.04;57.72;98378.41;4989856;28;20062;-75
2023/11/27 00:48:09;;;;;;;5.80;3.75;;;;;;;5.02;57.73;98373.34;4974405;28;20026;-74
2023/11/27 00:50:34;;;;;;;5.63;3.38;;;;;;;4.95;57.52;98366.88;4973682;28;20037;-75
2023/11/27 00:53:00;;;;;;;5.95;3.40;;;;;;;4.97;57.69;98370.19;4989601;28;20046;-75
2023/11/27 00:55:25;;;;;;;6.13;3.85;;;;;;;4.91;57.38;98360.22;4989353;28;20034;-75
2023/11/27 00:57:51;;;;;;;7.18;3.55;;;;;;;4.93;57.63;98370.47;4972931;28;20054;-75
2023/11/27 01:00:17;;;;;;;6.65;3.65;;;;;;;4.93;57.66;98384.22;4989199;28;20034;-75
2023/11/27 01:02:44;;;;;;;4.85;3.45;;;;;;;4.88;57.76;98384.50;4974042;28;20451;-75
2023/11/27 01:05:10;;;;;;;6.30;3.47;;;;;;;4.87;57.35;98380.25;4989111;28;20042;-76
2023/11/27 01:07:35;;;;;;;6.00;4.00;;;;;;;4.84;57.14;98390.78;4974113;28;20031;-75
2023/11/27 01:10:01;;;;;;;8.07;3.60;;;;;;;4.81;57.60;98387.56;4989157;28;20491;-76
2023/11/27 01:12:26;;;;;;;6.13;3.60;;;;;;;4.85;57.51;98401.94;4974358;28;20037;-75
2023/11/27 01:14:52;;;;;;;5.35;3.58;;;;;;;4.82;57.28;98405.56;4988260;28;20493;-74
2023/11/27 01:17:17;;;;;;;6.20;3.28;;;;;;;4.83;57.11;98408.97;4973952;28;20027;-75
2023/11/27 01:19:43;;;;;;;5.55;3.47;;;;;;;4.82;57.24;98410.75;4973957;28;20034;-75
2023/11/27 01:22:09;;;;;;;5.78;3.13;;;;;;;4.81;57.55;98401.31;4989698;28;20141;-75
2023/11/27 01:24:34;;;;;;;5.95;3.72;;;;;;;4.80;57.46;98404.81;4973759;28;20042;-75
2023/11/27 01:27:00;;;;;;;4.70;3.10;;;;;;;4.81;57.74;98403.91;4989176;28;20104;-75
2023/11/27 01:29:26;;;;;;;4.55;3.30;;;;;;;4.81;57.73;98411.66;4972970;28;20043;-75
2023/11/27 01:31:51;;;;;;;4.65;3.15;;;;;;;4.76;57.39;98399.91;4973906;28;20027;-75
2023/11/27 01:34:17;;;;;;;5.15;3.42;;;;;;;4.81;57.37;98422.00;4988812;28;20047;-75
2023/11/27 01:36:43;;;;;;;5.55;3.13;;;;;;;4.82;57.65;98423.66;4973874;28;20027;-75
2023/11/27 01:39:09;;;;;;;5.13;3.40;;;;;;;4.80;57.48;98415.16;4988691;28;20041;-75
2023/11/27 01:41:35;;;;;;;5.10;3.10;;;;;;;4.81;57.55;98426.34;4972722;28;20035;-74
2023/11/27 01:44:01;;;;;;;4.13;2.80;;;;;;;4.78;57.55;98419.59;4988668;28;20051;-75
2023/11/27 01:46:27;;;;;;;5.53;3.25;;;;;;;4.78;57.32;98411.00;4988607;28;20113;-75
2023/11/27 01:48:52;;;;;;;5.20;3.25;;;;;;;4.80;57.54;98412.56;4988637;28;20027;-75
2023/11/27 01:51:18;;;;;;;5.88;3.00;;;;;;;4.76;57.69;98411.09;4988465;28;20037;-75
2023/11/27 01:53:45;;;;;;;5.03;3.05;;;;;;;4.78;57.06;98404.06;4972696;28;20050;-76
2023/11/27 01:56:10;;;;;;;4.07;2.83;;;;;;;4.77;57.37;98407.56;4988567;28;20027;-75
2023/11/27 01:58:36;;;;;;;5.47;3.25;;;;;;;4.82;57.21;98418.50;4972820;28;20402;-76
2023/11/27 02:01:01;;;;;;;4.55;3.03;;;;;;;4.82;57.67;98428.00;4988384;28;20034;-75
2023/11/27 02:03:28;;;;;;;5.38;2.85;;;;;;;4.82;57.39;98433.16;4988256;28;20121;-75
2023/11/27 02:05:53;;;;;;;4.57;2.78;;;;;;;4.79;57.08;98434.19;4972706;28;20568;-75
2023/11/27 02:08:19;;;;;;;4.60;2.58;;;;;;;4.83;57.26;98435.66;4988375;28;20042;-75
2023/11/27 02:10:45;;;;;;;4.93;2.95;;;;;;;4.80;57.03;98427.25;4988276;28;20027;-76
2023/11/27 02:13:12;;;;;;;4.43;2.53;;;;;;;4.83;57.08;98432.25;4988453;28;20043;-76
2023/11/27 02:15:38;;;;;;;5.05;2.97;;;;;;;4.84;57.05;98442.50;4988011;28;20038;-76
2023/11/27 02:18:03;;;;;;;3.95;2.53;;;;;;;4.86;56.94;98437.25;4973225;28;20035;-76
2023/11/27 02:20:29;;;;;;;4.18;2.80;;;;;;;4.80;57.02;98428.06;4988381;28;20461;-76
2023/11/27 02:22:54;;;;;;;6.22;3.03;;;;;;;4.82;56.93;98428.84;4972564;28;20038;-77
2023/11/27 02:25:20;;;;;;;4.70;3.03;;;;;;;4.86;56.77;98439.84;4987934;28;20051;-76
2023/11/27 02:27:46;;;;;;;3.88;2.67;;;;;;;4.87;56.42;98442.34;4976401;28;20395;-75
2023/11/27 02:30:12;;;;;;;4.60;2.70;;;;;;;4.88;56.71;98443.97;4991962;28;20031;-75
2023/11/27 02:32:37;;;;;;;4.60;2.47;;;;;;;4.91;56.49;98452.50;4992153;28;20077;-76
2023/11/27 02:35:03;;;;;;;4.03;2.67;;;;;;;4.86;56.72;98448.41;4977180;28;20453;-76
2023/11/27 02:37:29;;;;;;;4.28;2.50;;;;;;;4.87;56.95;98451.81;4992064;28;20066;-76
2023/11/27 02:39:55;;;;;;;3.95;2.60;;;;;;;4.88;56.91;98454.31;4976961;28;20066;-75
2023/11/27 02:42:20;;;;;;;4.07;2.83;;;;;;;4.89;56.49;98461.19;4976235;28;20430;-75
2023/11/27 02:44:46;;;;;;;4.40;2.80;;;;;;;4.85;56.68;98467.44;4992486;28;20039;-75
2023/11/27 02:47:11;;;;;;;5.50;2.58;;;;;;;4.88;56.72;98471.59;4991969;28;20030;-76
2023/11/27 02:49:38;;;;;;;5.22;2.70;;;;;;;4.88;56.75;98474.19;4991841;28;20430;-75
2023/11/27 02:52:04;;;;;;;3.78;2.53;;;;;;;4.87;56.58;98475.97;4977030;28;20094;-75
2023/11/27 02:54:30;;;;;;;3.40;2.70;;;;;;;4.88;56.74;98485.38;4991733;28;20491;-75
2023/11/27 02:56:55;;;;;;;3.67;2.63;;;;;;;4.85;56.92;98475.19;4991918;28;20058;-75
2023/11/27 02:59:21;;;;;;;5.10;2.65;;;;;;;4.85;56.33;98479.53;4991537;28;20063;-76
2023/11/27 03:01:47;;;;;;;4.35;2.60;;;;;;;4.84;56.90;98483.91;4991551;28;20474;-76
2023/11/27 03:04:12;;;;;;;4.10;2.40;;;;;;;4.81;56.30;98475.47;4991310;28;20063;-76
2023/11/27 03:06:38;;;;;;;3.38;2.50;;;;;;;4.82;56.28;98485.75;4975282;28;20045;-75
2023/11/27 03:09:04;;;;;;;4.28;2.83;;;;;;;4.79;56.49;98485.91;4976451;28;20060;-75
2023/11/27 03:11:30;;;;;;;5.20;2.95;;;;;;;4.76;56.29;98487.81;4959350;28;20034;-76
2023/11/27 03:13:55;;;;;;;4.80;2.95;;;;;;;4.80;56.34;98503.06;4991462;28;20070;-75
2023/11/27 03:16:21;;;;;;;4.00;2.65;;;;;;;4.79;56.08;98510.91;4991071;28;20069;-75
2023/11/27 03:18:46;;;;;;;3.55;2.40;;;;;;;4.78;56.45;98504.94;4974834;28;20509;-75
2023/11/27 03:21:19;;;;;;;3.67;2.38;;;;;;;4.76;56.25;98501.59;4975176;28;20040;-76
2023/11/27 03:23:46;;;;;;;3.78;2.50;;;;;;;4.76;56.28;98501.59;4974775;28;20039;-76
2023/11/27 03:26:13;;;;;;;4.18;2.30;;;;;;;4.75;55.99;98514.63;4990146;28;20549;-75
2023/11/27 03:28:39;;;;;;;5.13;2.70;;;;;;;4.73;56.26;98509.53;4976033;28;20043;-75
2023/11/27 03:31:04;;;;;;;4.32;2.80;;;;;;;4.74;56.14;98516.34;4991063;28;20030;-76
2023/11/27 03:33:30;;;;;;;4.70;2.50;;;;;;;4.70;56.21;98507.94;4990523;28;20481;-75
2023/11/27 03:35:56;;;;;;;3.42;2.28;;;;;;;4.73;56.27;98514.69;4990919;28;20058;-75
2023/11/27 03:38:21;;;;;;;8.18;2.63;;;;;;;4.67;56.24;98508.09;4973345;28;20483;-75
2023/11/27 03:40:47;;;;;;;4.70;2.60;;;;;;;4.72;55.95;98515.59;4990882;28;20030;-75
2023/11/27 03:43:12;;;;;;;4.22;2.70;;;;;;;4.71;56.12;98514.78;4975960;28;20026;-76
2023/11/27 03:45:38;;;;;;;3.67;2.38;;;;;;;4.71;56.51;98514.78;4974498;28;20043;-76
2023/11/27 03:48:06;;;;;;;3.85;2.58;;;;;;;4.70;56.57;98512.28;4975585;28;20085;-76
2023/11/27 03:50:33;;;;;;;3.30;2.38;;;;;;;4.70;56.50;98510.53;4990469;28;20030;-76
2023/11/27 03:52:58;;;;;;;3.65;1.98;;;;;;;4.67;56.57;98507.28;4990601;28;20104;-76
2023/11/27 03:55:24;;;;;;;3.75;2.42;;;;;;;4.71;56.57;98519.09;4990685;28;20487;-77
2023/11/27 03:57:50;;;;;;;4.18;2.30;;;;;;;4.65;56.02;98503.94;4975450;28;20027;-76
2023/11/27 04:00:17;;;;;;;3.08;2.10;;;;;;;4.68;56.23;98508.94;4975356;28;20057;-76
2023/11/27 04:02:45;;;;;;;3.42;2.20;;;;;;;4.62;56.45;98504.13;4974588;28;20026;-76
2023/11/27 04:05:11;;;;;;;;;;;;;;;4.66;56.88;98524.53;4974726;28;20042;-76
2023/11/27 04:07:36;;;;;;;3.50;2.30;;;;;;;4.62;56.55;98527.41;4974263;28;20360;-76
2023/11/27 04:10:02;;;;;;;2.70;2.05;;;;;;;4.60;56.18;98534.38;4974237;28;20519;-75
2023/11/27 04:12:32;;;;;;;4.20;2.47;;;;;;;4.58;56.79;98521.53;4990147;28;20037;-75
2023/11/27 04:15:00;;;;;;;3.33;2.05;;;;;;;4.49;56.21;98522.91;4973987;28;20184;-76
2023/11/27 04:17:25;;;;;;;3.17;2.10;;;;;;;4.56;56.29;98540.66;4974081;28;20039;-75
2023/11/27 04:19:51;;;;;;;3.28;2.15;;;;;;;4.48;56.25;98534.13;4990220;28;20162;-75
2023/11/27 04:22:17;;;;;;;3.28;1.85;;;;;;;4.47;56.33;98534.22;4973889;28;20431;-74
2023/11/27 04:24:43;;;;;;;3.55;2.30;;;;;;;4.46;56.23;98535.13;4973740;28;20054;-75
2023/11/27 04:27:08;;;;;;;4.90;1.95;;;;;;;4.46;56.44;98541.16;4973683;28;20043;-76
2023/11/27 04:29:33;;;;;;;4.35;2.00;;;;;;;4.44;55.82;98547.31;4989607;28;20411;-76
2023/11/27 04:31:59;;;;;;;4.07;2.05;;;;;;;4.37;56.14;98546.00;4970212;28;20098;-75
2023/11/27 04:34:24;;;;;;;6.28;2.33;;;;;;;4.34;56.06;98545.22;4970597;28;20107;-75
2023/11/27 04:36:50;;;;;;;4.53;2.97;;;;;;;4.37;56.36;98553.75;4954409;29;20043;-74
2023/11/27 04:39:18;;;;;;;5.93;3.60;;;;;;;4.33;56.34;98556.50;4969589;28;20547;-77
2023/11/27 04:41:43;;;;;;;5.77;3.33;;;;;;;4.27;56.57;98555.97;4962215;28;20077;-76
2023/11/27 04:44:09;;;;;;;6.40;3.83;;;;;;;4.28;56.54;98573.16;4953706;29;20278;-79
2023/11/27 04:46:35;;;;;;;7.15;4.00;;;;;;;4.26;56.39;98565.47;4938917;29;20036;-88
2023/11/27 04:49:00;;;;;;;7.55;4.63;;;;;;;4.23;56.84;98573.38;4955167;28;20062;-76
2023/11/27 04:51:27;;;;;;;7.72;4.22;;;;;;;4.16;56.69;98572.06;4938448;28;20035;-79
2023/11/27 04:53:53;;;;;;;8.25;4.43;;;;;;;4.15;56.42;98576.38;4971136;28;20034;-75
2023/11/27 04:56:18;;;;;;;7.75;4.22;;;;;;;4.17;56.46;98581.47;4973496;28;20403;-76
2023/11/27 04:58:44;;;;;;;9.25;4.43;;;;;;;4.15;56.92;98578.97;4957253;28;20066;-75
2023/11/27 05:01:09;;;;;;;7.43;3.78;;;;;;;4.09;56.74;98579.28;4957670;28;20031;-74
2023/11/27 05:03:35;;;;;;;7.00;3.97;;;;;;;4.12;56.94;98584.28;4973205;28;20039;-74
2023/11/27 05:06:01;;;;;;;7.05;4.10;;;;;;;4.07;57.04;98586.28;4973652;28;20035;-73
2023/11/27 05:08:26;;;;;;;6.35;3.70;;;;;;;4.09;56.64;98588.78;4989336;28;20038;-74
2023/11/27 05:10:52;;;;;;;7.15;4.07;;;;;;;4.07;56.70;98591.44;4973138;28;20481;-77
2023/11/27 05:13:17;;;;;;;7.15;3.63;;;;;;;4.08;57.01;98603.47;4973554;28;20035;-78
2023/11/27 05:15:43;;;;;;;14.45;1.73;;;;;;;4.29;68.73;98601.50;4974195;28;20031;-81
2023/11/27 05:18:08;;;;;;;4.00;2.00;;;;;;;4.83;74.69;98595.19;4956606;28;20038;-77
2023/11/27 05:20:34;;;;;;;2.85;1.58;;;;;;;4.84;71.57;98602.03;4973773;28;20034;-76
2023/11/27 05:23:01;;;;;;;4.95;1.77;;;;;;;4.74;69.52;98603.44;4956191;28;20074;-74
2023/11/27 05:25:27;;;;;;;4.00;1.75;;;;;;;4.69;66.66;98608.88;4987834;28;20110;-73
2023/11/27 05:27:53;;;;;;;3.30;1.98;;;;;;;4.66;65.14;98603.84;4970702;28;20023;-75
2023/11/27 05:30:19;;;;;;;2.45;1.50;;;;;;;4.64;63.60;98606.53;4957599;28;20047;-75
2023/11/27 05:32:45;;;;;;;6.53;1.77;;;;;;;4.64;63.04;98608.28;4989217;28;20502;-75
2023/11/27 05:35:10;;;;;;;6.10;1.67;;;;;;;4.81;62.13;98621.13;4956304;28;20069;-76
2023/11/27 05:37:36;;;;;;;3.65;1.83;;;;;;;4.94;61.37;98616.13;4972348;28;20053;-75
2023/11/27 05:40:02;;;;;;;3.20;1.58;;;;;;;5.21;61.21;98616.34;4988370;28;20390;-77
2023/11/27 05:42:31;;;;;;;2.35;1.25;;;;;;;5.50;60.36;98613.84;4970526;28;20414;-77
2023/11/27 05:44:59;;;;;;;4.25;1.67;;;;;;;5.90;59.72;98623.63;4973016;28;20113;-76
2023/11/27 05:47:25;;;;;;;4.63;1.67;;;;;;;6.43;58.76;98627.41;4979786;28;20498;-78
2023/11/27 05:49:52;;;;;;;3.33;1.35;;;;;;;7.01;57.53;98632.50;4988629;28;20155;-79
2023/11/27 05:52:18;;;;;;;2.65;1.40;;;;;;;7.58;56.39;98642.66;4970063;28;20034;-79
2023/11/27 05:54:43;;;;;;;2.58;1.40;;;;;;;8.17;55.92;98649.16;4973169;28;20458;-73
2023/11/27 05:57:09;;;;;;;2.88;1.77;;;;;;;8.81;55.40;98648.31;4975115;28;20034;-85
2023/11/27 05:59:34;;;;;;;5.72;2.50;;;;;;;9.71;45.84;98655.72;4972815;28;20518;-80
2023/11/27 06:02:00;;;;;;;12.50;2.40;;;;;;;9.82;39.71;98647.09;4972215;28;20509;-82
2023/11/27 06:04:26;;;;;;;6.18;3.53;;;;;;;9.94;35.65;98647.03;4972786;28;20042;-81
2023/11/27 06:06:52;;;;;;;8.85;4.40;;;;;;;10.32;34.06;98658.09;4989003;28;20030;-81
2023/11/27 06:09:18;;;;;;;5.72;2.88;;;;;;;10.57;31.87;98659.69;4956866;28;20163;-80
2023/11/27 06:11:43;;;;;;;4.93;2.50;;;;;;;10.63;31.79;98663.63;4973508;28;20110;-82
2023/11/27 06:14:09;;;;;;;6.68;2.33;;;;;;;10.77;31.82;98662.53;4972408;28;20142;-79
2023/11/27 06:16:34;;;;;;;9.25;5.13;;;;;;;10.61;32.00;98673.34;4972165;28;20038;-80
2023/11/27 06:19:00;;;;;;;17.40;6.10;;;;;;;11.59;34.04;98669.91;4977072;28;20126;-86
2023/11/27 06:21:26;;;;;;;10.52;4.70;;;;;;;12.82;33.03;98669.28;4978592;28;20482;-84
2023/11/27 06:23:51;;;;;;;8.18;4.57;;;;;;;14.09;31.67;98669.44;4958261;28;20410;-80
2023/11/27 06:26:18;;;;;;;7.28;4.15;;;;;;;15.10;30.80;98674.88;4956602;28;20146;-83
2023/11/27 06:28:44;;;;;;;10.30;4.72;;;;;;;16.18;26.83;98676.69;4956947;28;20030;-82
2023/11/27 06:31:09;;;;;;;13.80;8.15;;;;;;;17.24;24.98;98675.53;4956190;28;20059;-80
2023/11/27 06:33:35;;;;;;;10.88;5.68;;;;;;;18.23;23.13;98687.84;4956787;28;20522;-80
2023/11/27 06:36:00;;;;;;;14.25;4.45;;;;;;;18.76;30.89;98693.47;4972018;28;20038;-76
2023/11/27 06:38:26;;;;;;;11.95;4.32;;;;;;;19.42;28.87;98692.34;4989511;28;20086;-84
2023/11/27 06:40:52;;;;;;;10.05;4.88;;;;;;;19.87;26.14;98696.03;4956769;28;20496;-82
2023/11/27 06:43:18;;;;;;;11.73;3.92;;;;;;;19.92;28.94;98701.63;4983125;28;20082;-84
2023/11/27 06:45:44;;;;;;;6.35;3.92;;;;;;;19.79;26.57;98709.34;4963107;28;20035;-91
2023/11/27 06:48:09;;;;;;;9.32;4.07;;;;;;;19.39;25.85;98704.13;4961421;28;20019;-81
2023/11/27 06:50:35;;;;;;;10.95;3.83;;;;;;;19.40;32.25;98710.25;4974654;28;20031;-79
2023/11/27 06:53:00;;;;;;;9.93;2.30;;;;;;;19.69;34.29;98715.69;4972674;28;20093;-85
2023/11/27 06:55:27;;;;;;;10.10;3.30;;;;;;;19.28;29.35;98718.56;4973951;28;20042;-79
2023/11/27 06:57:53;;;;;;;8.70;3.88;;;;;;;18.62;28.95;98731.19;4972350;28;20388;-77
2023/11/27 07:00:19;;;;;;;10.38;4.03;;;;;;;18.06;27.24;98724.00;4971901;28;20097;-77
2023/11/27 07:02:45;;;;;;;8.55;4.07;;;;;;;17.92;26.92;98731.72;4971569;28;20081;-72
2023/11/27 07:05:10;;;;;;;9.32;3.97;;;;;;;17.44;24.66;98727.03;4972854;28;20094;-76
2023/11/27 07:07:36;;;;;;;5.45;2.50;;;;;;;17.32;35.29;98733.59;4954135;28;20154;-78
2023/11/27 07:10:02;;;;;;;5.90;3.10;;;;;;;16.99;31.44;98730.84;4952456;28;20472;-74
2023/11/27 07:12:29;;;;;;;4.75;3.20;;;;;;;17.30;28.97;98728.47;4952655;28;20039;-77
2023/11/27 07:14:54;;;;;;;5.90;3.08;;;;;;;17.45;28.04;98731.31;4955590;29;20083;-75
2023/11/27 07:17:20;;;;;;;7.85;3.30;;;;;;;17.69;27.22;98730.53;4955654;29;20134;-75
2023/11/27 07:19:46;;;;;;;6.10;2.60;;;;;;;17.93;26.07;98733.41;4972024;28;20023;-75
2023/11/27 07:22:11;;;;;;;6.88;2.10;;;;;;;18.20;25.04;98730.44;4955890;29;20058;-75
2023/11/27 07:24:37;;;;;;;7.03;2.55;;;;;;;18.44;23.59;98726.94;4955907;28;20054;-76
2023/11/27 07:27:04;;;;;;;5.30;2.28;;;;;;;18.67;23.29;98731.50;4971745;28;20039;-77
2023/11/27 07:29:29;;;;;;;6.55;1.58;;;;;;;19.12;34.14;98745.13;4955918;29;20035;-77
2023/11/27 07:31:55;;;;;;;4.70;1.85;;;;;;;19.67;31.78;98736.22;4962222;28;20081;-75
2023/11/27 07:34:21;;;;;;;3.70;2.20;;;;;;;19.99;28.91;98744.16;4971914;28;20043;-74
2023/11/27 07:36:47;;;;;;;5.82;3.17;;;;;;;20.19;25.97;98745.31;4970064;28;20118;-74
2023/11/27 07:39:13;;;;;;;11.63;6.68;;;;;;;20.35;24.75;98744.34;4971010;28;20383;-73
2023/11/27 07:41:38;;;;;;;12.77;6.95;;;;;;;20.52;23.66;98749.47;4957215;28;20554;-73
2023/11/27 07:44:04;;;;;;;4.28;2.30;;;;;;;20.66;32.54;98746.03;4969466;28;20030;-73
2023/11/27 07:46:30;;;;;;;5.70;3.17;;;;;;;21.02;29.59;98753.28;4990871;28;20050;-72
2023/11/27 07:48:56;;;;;;;6.57;3.60;;;;;;;21.29;25.98;98749.13;4974866;28;20050;-77
2023/11/27 07:51:21;;;;;;;8.18;3.55;;;;;;;21.44;24.23;98740.28;4975880;28;20042;-75
2023/11/27 07:53:48;;;;;;;8.27;3.28;;;;;;;21.59;22.17;98740.31;4986445;28;20058;-77
2023/11/27 07:56:13;;;;;;;4.03;2.40;;;;;;;21.69;21.37;98740.81;4958918;28;20023;-75
2023/11/27 07:58:41;;;;;;;4.15;2.05;;;;;;;21.84;21.04;98738.09;4990586;28;20038;-76
2023/11/27 08:01:07;;;;;;;3.78;2.05;;;;;;;22.00;20.42;98737.84;4952641;28;20499;-73
2023/11/27 08:03:32;;;;;;;6.93;2.75;;;;;;;22.16;20.10;98742.06;4956032;28;20054;-74
2023/11/27 08:05:59;;;;;;;2.53;1.38;;;;;;;22.32;20.00;98735.69;4970771;28;20043;-76
2023/11/27 08:08:25;;;;;;;2.67;1.40;;;;;;;22.41;19.46;98733.72;4970840;28;20023;-76
2023/11/27 08:10:50;;;;;;;4.38;1.40;;;;;;;22.58;19.18;98740.38;4954419;28;20082;-75
2023/11/27 08:13:16;;;;;;;2.00;1.13;;;;;;;22.73;18.41;98752.75;4956252;28;20063;-75
2023/11/27 08:15:42;;;;;;;2.78;0.90;;;;;;;22.84;18.10;98749.53;4954425;29;20470;-76
2023/11/27 08:18:08;;;;;;;2.22;0.82;;;;;;;23.02;17.87;98748.19;4954506;29;20605;-74
2023/11/27 08:20:38;;;;;;;1.73;0.70;;;;;;;23.16;17.45;98746.44;4970572;28;20031;-74
2023/11/27 08:23:03;;;;;;;1.63;0.80;;;;;;;23.28;17.57;98744.88;4970123;28;20035;-73
2023/11/27 08:25:29;;;;;;;1.50;0.80;;;;;;;23.44;16.99;98754.34;4953670;28;20522;-75
2023/11/27 08:27:55;;;;;;;2.03;0.85;;;;;;;23.47;16.50;98754.75;4970581;28;20447;-75
2023/11/27 08:30:22;;;;;;;1.20;0.70;;;;;;;23.58;16.31;98758.69;4954344;28;20035;-74
2023/11/27 08:32:48;;;;;;;1.70;0.80;;;;;;;23.63;16.06;98758.91;4970443;28;20063;-74
2023/11/27 08:35:13;;;;;;;1.63;0.85;;;;;;;23.70;16.07;98756.25;4954024;29;20109;-75
2023/11/27 08:37:39;;;;;;;1.63;1.00;;;;;;;23.90;15.68;98748.31;4970806;28;20035;-75
2023/11/27 08:40:09;;;;;;;1.67;0.88;;;;;;;24.07;15.74;98755.91;4954184;28;20066;-75
2023/11/27 08:42:35;;;;;;;1.73;0.88;;;;;;;24.29;15.69;98756.53;4954420;28;20122;-76
2023/11/27 08:45:10;;;;;;;1.85;1.00;;;;;;;24.56;15.86;98755.53;4938261;28;20078;-75
2023/11/27 08:47:37;;;;;;;2.17;0.90;;;;;;;24.85;15.50;98766.78;4954451;29;20028;-75
2023/11/27 08:50:04;;;;;;;1.90;0.90;;;;;;;25.05;15.54;98765.91;4955402;28;20032;-76
2023/11/27 08:52:29;;;;;;;1.70;1.00;;;;;;;25.36;15.12;98767.06;4954627;29;20023;-74
2023/11/27 08:54:55;;;;;;;4.00;2.78;;;;;;;25.68;15.22;98770.59;4970295;28;20407;-74
2023/11/27 08:57:20;;;;;;;8.52;6.03;;;;;;;25.89;14.71;98765.97;4969956;28;20050;-75
2023/11/27 08:59:46;;;;;;;6.03;4.00;;;;;;;26.12;14.86;98768.88;4954013;28;20034;-75
2023/11/27 09:02:11;;;;;;;5.85;3.65;;;;;;;26.36;14.39;98767.28;4970137;28;20532;-74
2023/11/27 09:04:37;;;;;;;11.73;5.35;;;;;;;26.62;14.53;98772.59;4969859;28;20038;-74
2023/11/27 09:07:02;;;;;;;5.90;3.97;;;;;;;26.87;14.23;98765.38;4953996;28;20043;-73
2023/11/27 09:09:28;;;;;;;8.30;4.40;;;;;;;27.18;14.23;98776.16;4969725;28;20051;-74
2023/11/27 09:11:54;;;;;;;7.70;5.60;;;;;;;27.15;13.98;98765.88;4954020;28;20513;-74
2023/11/27 09:14:20;;;;;;;5.22;3.85;;;;;;;26.92;14.39;98759.34;4969780;28;20031;-76
2023/11/27 09:16:45;;;;;;;3.90;2.47;;;;;;;26.86;14.29;98763.72;4954036;28;20423;-75
2023/11/27 09:19:11;;;;;;;3.67;2.30;;;;;;;26.74;14.01;98759.31;4969989;28;20023;-77
2023/11/27 09:21:37;;;;;;;2.78;1.90;;;;;;;26.65;13.96;98764.97;4953691;28;20122;-76
2023/11/27 09:24:03;;;;;;;2.40;1.50;;;;;;;26.59;13.92;98747.09;4969776;28;20050;-75
2023/11/27 09:26:28;;;;;;;4.22;1.58;;;;;;;27.12;13.80;98744.91;4969543;28;20114;-75
2023/11/27 09:28:54;;;;;;;2.35;1.30;;;;;;;28.13;12.86;98755.94;4969621;28;20050;-74
2023/11/27 09:31:21;;;;;;;2.45;1.85;;;;;;;29.19;12.39;98753.25;4969750;28;20035;-75
2023/11/27 09:33:47;;;;;;;2.53;1.67;;;;;;;30.08;11.66;98748.44;4969737;28;20106;-77
2023/11/27 09:36:15;;;;;;;2.25;1.65;;;;;;;29.15;12.35;98741.31;4968727;28;20475;-76
2023/11/27 09:38:40;;;;;;;;;;;;;;;30.95;10.75;98738.13;4969638;28;20332;-76
2023/11/27 09:41:07;;;;;;;4.75;3.35;;;;;;;30.51;10.84;98738.06;4937507;29;20017;-77
2023/11/27 09:43:33;;;;;;;5.85;3.72;;;;;;;27.49;12.59;98744.88;4953315;28;20031;-76
2023/11/27 09:45:59;;;;;;;5.65;3.42;;;;;;;26.41;13.34;98744.38;4937369;29;20054;-75
2023/11/27 09:48:25;;;;;;;6.97;4.60;;;;;;;26.99;12.56;98745.88;4937992;29;20047;-75
2023/11/27 09:50:51;;;;;;;5.28;4.00;;;;;;;24.85;14.06;98745.41;4937492;29;20039;-75
2023/11/27 09:53:19;;;;;;;6.40;3.40;;;;;;;24.20;14.62;98734.59;4969575;28;20039;-73
2023/11/27 09:55:49;;;;;;;;;;;;;;;23.44;14.90;98739.16;4937844;28;20023;-75
2023/11/27 09:58:16;;;;;;;4.30;2.70;;;;;;;25.10;13.77;98742.06;4937755;28;19921;-74
2023/11/27 10:00:43;;;;;;;6.32;4.50;;;;;;;25.51;13.76;98742.72;4968937;28;20031;-76
2023/11/27 10:03:09;;;;;;;7.38;5.15;;;;;;;25.46;13.88;98744.19;4969030;28;20050;-74
2023/11/27 10:05:34;;;;;;;6.97;3.45;;;;;;;24.48;14.62;98737.06;4953224;28;20039;-74
2023/11/27 10:08:03;;;;;;;10.57;7.78;;;;;;;23.46;15.43;98741.63;4952954;28;20443;-74
2023/11/27 10:10:28;;;;;;;18.73;14.15;;;;;;;23.77;14.94;98742.94;4968779;28;20463;-73
2023/11/27 10:12:58;;;;;;;19.27;14.55;;;;;;;23.87;15.22;98739.91;4953303;28;20043;-74
2023/11/27 10:15:26;;;;;;;18.75;12.88;;;;;;;24.01;15.29;98739.72;4937578;29;20039;-74
2023/11/27 10:17:53;;;;;;;16.50;11.45;;;;;;;23.07;16.06;98729.78;4954199;28;20487;-75
2023/11/27 10:20:21;;;;;;;13.15;10.13;;;;;;;22.28;16.59;98739.72;4937681;29;20055;-76
2023/11/27 10:22:47;;;;;;;10.82;7.60;;;;;;;22.03;16.49;98740.13;4922423;29;20049;-75
2023/11/27 10:25:14;;;;;;;8.70;5.35;;;;;;;21.27;17.38;98739.72;4968963;28;20574;-74
2023/11/27 10:27:46;;;;;;;6.47;4.43;;;;;;;20.53;17.66;98725.44;4968920;28;20126;-75
2023/11/27 10:30:21;;;;;;;4.75;3.25;;;;;;;20.13;18.08;98729.28;4937837;28;20118;-74
2023/11/27 10:32:47;;;;;;;6.00;3.58;;;;;;;20.05;17.90;98722.22;4937179;29;20094;-75
2023/11/27 10:35:13;;;;;;;5.00;3.20;;;;;;;20.18;18.00;98716.34;4953062;28;20047;-74
2023/11/27 10:37:41;;;;;;;4.55;2.60;;;;;;;20.37;18.08;98722.94;4952949;29;20133;-75
2023/11/27 10:40:13;;;;;;;3.97;2.47;;;;;;;20.41;18.02;98709.16;4968589;28;20039;-76
2023/11/27 10:42:39;;;;;;;5.32;2.90;;;;;;;20.53;17.97;98714.00;4953426;28;20044;-77
2023/11/27 10:45:08;;;;;;;12.07;6.00;;;;;;;20.55;17.82;98706.69;4952823;29;20034;-74
2023/11/27 10:47:34;;;;;;;10.60;6.20;;;;;;;20.58;18.25;98703.66;4954237;28;20067;-74
2023/11/27 10:50:00;;;;;;;11.48;6.35;;;;;;;20.59;18.16;98700.03;4972364;28;20065;-77
2023/11/27 10:52:25;;;;;;;5.15;3.97;;;;;;;20.58;17.95;98701.84;4972347;28;20063;-76
2023/11/27 10:54:51;;;;;;;8.68;4.80;;;;;;;20.57;17.89;98694.91;4956083;28;20032;-74
2023/11/27 10:57:17;;;;;;;4.40;3.10;;;;;;;20.53;18.35;98696.25;4972558;28;20042;-74
2023/11/27 10:59:44;;;;;;;3.90;2.50;;;;;;;20.51;18.29;98708.88;4955900;28;20023;-75
2023/11/27 11:02:11;;;;;;;3.17;2.20;;;;;;;20.45;18.30;98703.47;4972539;28;20055;-75
2023/11/27 11:04:50;;;;;;;8.10;5.57;;;;;;;20.30;18.50;98704.28;4972211;28;20039;-76
2023/11/27 11:07:22;;;;;;;4.68;3.58;;;;;;;20.18;18.44;98700.44;4957333;28;20031;-74
2023/11/27 11:09:51;;;;;;;4.85;3.40;;;;;;;20.13;18.63;98706.28;4956412;28;20061;-74
2023/11/27 11:12:20;;;;;;;5.10;3.22;;;;;;;19.99;18.63;98699.94;4972301;28;20079;-76
2023/11/27 11:14:46;;;;;;;8.60;5.45;;;;;;;19.84;18.63;98697.22;4940135;28;20027;-75
2023/11/27 11:17:34;;;;;;;12.23;8.88;;;;;;;19.77;18.77;98700.78;4971972;28;20458;-75
2023/11/27 11:20:15;;;;;;;;;;;;;;;19.66;18.87;98707.28;4965906;28;20043;-74
2023/11/27 11:23:00;;;;;;;12.18;8.60;;;;;;;19.41;19.28;98702.13;4956056;29;19914;-75
2023/11/27 11:25:29;;;;;;;15.15;9.52;;;;;;;19.29;19.12;98696.41;4971886;28;20048;-75
2023/11/27 11:28:11;;;;;;;12.13;9.05;;;;;;;19.18;19.36;98702.06;4939602;29;20033;-74
2023/11/27 11:30:37;;;;;;;8.95;6.32;;;;;;;18.91;19.69;98690.13;4971848;28;20063;-74
2023/11/27 11:33:05;;;;;;;7.43;5.40;;;;;;;18.69;19.84;98684.59;4955516;28;20073;-75